createdAt,value
2018-08-25T00:00:58.235Z,971.56
2018-08-25T00:01:58.230Z,971.52
2018-08-25T00:02:58.229Z,971.53
2018-08-25T00:03:58.223Z,971.50
2018-08-25T00:04:58.215Z,971.52
2018-08-25T00:05:58.215Z,971.52
2018-08-25T00:06:58.208Z,971.53
2018-08-25T00:07:58.203Z,971.51
2018-08-25T00:08:58.228Z,971.46
2018-08-25T00:09:58.198Z,971.46
2018-08-25T00:10:58.189Z,971.45
2018-08-25T00:11:58.191Z,971.47
2018-08-25T00:12:58.185Z,971.44
2018-08-25T00:13:58.176Z,971.43
2018-08-25T00:14:58.179Z,971.43
2018-08-25T00:15:58.171Z,971.40
2018-08-25T00:16:58.165Z,971.45
2018-08-25T00:17:58.163Z,971.44
2018-08-25T00:18:58.158Z,971.42
2018-08-25T00:19:58.151Z,971.44
2018-08-25T00:20:58.148Z,971.40
2018-08-25T00:21:58.143Z,971.40
2018-08-25T00:22:58.137Z,971.40
2018-08-25T00:23:58.141Z,971.34
2018-08-25T00:24:58.129Z,971.32
2018-08-25T00:25:58.132Z,971.32
2018-08-25T00:26:58.120Z,971.30
2018-08-25T00:27:58.118Z,971.25
2018-08-25T00:28:58.111Z,971.24
2018-08-25T00:29:58.109Z,971.25
2018-08-25T00:30:58.111Z,971.22
2018-08-25T00:31:58.105Z,971.22
2018-08-25T00:32:58.096Z,971.20
2018-08-25T00:33:58.089Z,971.16
2018-08-25T00:34:58.086Z,971.14
2018-08-25T00:35:58.083Z,971.10
2018-08-25T00:36:58.077Z,971.12
2018-08-25T00:37:58.075Z,971.12
2018-08-25T00:38:58.073Z,971.16
2018-08-25T00:39:58.067Z,971.16
2018-08-25T00:40:58.064Z,971.19
2018-08-25T00:41:58.053Z,971.17
2018-08-25T00:42:58.052Z,971.15
2018-08-25T00:43:58.046Z,971.14
2018-08-25T00:44:58.041Z,971.15
2018-08-25T00:45:58.036Z,971.15
2018-08-25T00:46:58.038Z,971.17
2018-08-25T00:47:58.040Z,971.21
2018-08-25T00:48:58.023Z,971.20
2018-08-25T00:49:58.024Z,971.15
2018-08-25T00:50:58.020Z,971.16
2018-08-25T00:51:58.016Z,971.16
2018-08-25T00:52:58.006Z,971.10
2018-08-25T00:53:58.001Z,971.13
2018-08-25T00:54:58.003Z,971.14
2018-08-25T00:55:57.993Z,971.16
2018-08-25T00:56:57.989Z,971.15
2018-08-25T00:57:57.984Z,971.17
2018-08-25T00:58:57.984Z,971.15
2018-08-25T00:59:57.984Z,971.13
2018-08-25T01:00:57.974Z,971.16
2018-08-25T01:01:57.965Z,971.16
2018-08-25T01:02:57.965Z,971.14
2018-08-25T01:03:57.957Z,971.17
2018-08-25T01:04:57.954Z,971.13
2018-08-25T01:05:57.950Z,971.16
2018-08-25T01:06:57.944Z,971.15
2018-08-25T01:07:57.937Z,971.13
2018-08-25T01:08:57.935Z,971.13
2018-08-25T01:09:57.930Z,971.12
2018-08-25T01:10:57.923Z,971.11
2018-08-25T01:11:57.919Z,971.15
2018-08-25T01:12:57.920Z,971.19
2018-08-25T01:13:57.914Z,971.20
2018-08-25T01:14:57.904Z,971.18
2018-08-25T01:15:57.902Z,971.20
2018-08-25T01:16:57.894Z,971.18
2018-08-25T01:17:58.032Z,971.19
2018-08-25T01:18:57.885Z,971.20
2018-08-25T01:19:58.051Z,971.24
2018-08-25T01:20:57.881Z,971.22
2018-08-25T01:21:57.875Z,971.19
2018-08-25T01:22:57.873Z,971.16
2018-08-25T01:23:57.861Z,971.13
2018-08-25T01:24:57.856Z,971.19
2018-08-25T01:25:57.855Z,971.19
2018-08-25T01:26:57.848Z,971.21
2018-08-25T01:27:57.848Z,971.19
2018-08-25T01:28:57.842Z,971.21
2018-08-25T01:29:57.833Z,971.22
2018-08-25T01:30:57.832Z,971.21
2018-08-25T01:31:57.824Z,971.17
2018-08-25T01:32:57.824Z,971.18
2018-08-25T01:33:57.817Z,971.16
2018-08-25T01:34:57.810Z,971.13
2018-08-25T01:35:57.810Z,971.14
2018-08-25T01:36:57.804Z,971.07
2018-08-25T01:37:57.794Z,971.05
2018-08-25T01:38:57.789Z,971.02
2018-08-25T01:39:57.783Z,971.01
2018-08-25T01:40:57.783Z,971.00
2018-08-25T01:41:57.772Z,971.02
2018-08-25T01:42:57.772Z,970.99
2018-08-25T01:43:57.764Z,970.98
2018-08-25T01:44:57.760Z,970.98
2018-08-25T01:45:57.753Z,970.98
2018-08-25T01:46:57.750Z,970.99
2018-08-25T01:47:57.745Z,971.01
2018-08-25T01:48:57.741Z,971.02
2018-08-25T01:49:57.739Z,971.04
2018-08-25T01:50:57.729Z,971.06
2018-08-25T01:51:57.725Z,971.03
2018-08-25T01:52:57.719Z,971.00
2018-08-25T01:53:57.715Z,971.00
2018-08-25T01:54:57.714Z,971.00
2018-08-25T01:55:57.704Z,971.00
2018-08-25T01:56:57.699Z,971.00
2018-08-25T01:57:57.696Z,971.02
2018-08-25T01:58:57.698Z,970.98
2018-08-25T01:59:57.687Z,971.01
2018-08-25T02:00:57.680Z,971.03
2018-08-25T02:01:57.680Z,971.02
2018-08-25T02:02:57.673Z,971.03
2018-08-25T02:03:57.664Z,971.06
2018-08-25T02:04:57.659Z,971.01
2018-08-25T02:05:57.666Z,971.02
2018-08-25T02:06:57.653Z,971.05
2018-08-25T02:07:57.651Z,971.05
2018-08-25T02:08:57.642Z,971.03
2018-08-25T02:09:57.635Z,971.05
2018-08-25T02:10:57.637Z,971.05
2018-08-25T02:11:57.631Z,971.02
2018-08-25T02:12:57.623Z,971.04
2018-08-25T02:13:57.618Z,971.01
2018-08-25T02:14:57.615Z,970.97
2018-08-25T02:15:57.605Z,970.97
2018-08-25T02:16:57.599Z,970.98
2018-08-25T02:17:57.594Z,970.97
2018-08-25T02:18:57.593Z,970.93
2018-08-25T02:19:57.592Z,970.92
2018-08-25T02:20:57.582Z,970.90
2018-08-25T02:21:57.577Z,970.87
2018-08-25T02:22:57.570Z,970.90
2018-08-25T02:23:57.567Z,970.89
2018-08-25T02:24:57.560Z,970.92
2018-08-25T02:25:57.559Z,970.88
2018-08-25T02:26:57.559Z,970.85
2018-08-25T02:27:57.548Z,970.87
2018-08-25T02:28:57.541Z,970.86
2018-08-25T02:29:57.541Z,970.92
2018-08-25T02:30:57.536Z,970.91
2018-08-25T02:31:57.535Z,970.93
2018-08-25T02:32:57.527Z,970.93
2018-08-25T02:33:57.520Z,970.98
2018-08-25T02:34:57.516Z,970.91
2018-08-25T02:35:57.510Z,970.93
2018-08-25T02:36:57.502Z,970.91
2018-08-25T02:37:57.499Z,970.91
2018-08-25T02:38:57.492Z,970.94
2018-08-25T02:39:57.494Z,970.97
2018-08-25T02:40:57.486Z,970.92
2018-08-25T02:41:57.476Z,970.93
2018-08-25T02:42:57.475Z,970.87
2018-08-25T02:43:57.469Z,970.89
2018-08-25T02:44:57.464Z,970.88
2018-08-25T02:45:57.460Z,970.86
2018-08-25T02:46:57.458Z,970.81
2018-08-25T02:47:57.458Z,970.79
2018-08-25T02:48:57.448Z,970.78
2018-08-25T02:49:57.438Z,970.73
2018-08-25T02:50:57.435Z,970.77
2018-08-25T02:51:57.430Z,970.76
2018-08-25T02:52:57.441Z,970.75
2018-08-25T02:53:57.420Z,970.76
2018-08-25T02:54:57.412Z,970.73
2018-08-25T02:55:57.408Z,970.72
2018-08-25T02:56:57.408Z,970.73
2018-08-25T02:57:57.397Z,970.79
2018-08-25T02:58:57.392Z,970.72
2018-08-25T02:59:57.393Z,970.73
2018-08-25T03:00:57.387Z,970.70
2018-08-25T03:01:57.385Z,970.72
2018-08-25T03:02:57.375Z,970.72
2018-08-25T03:03:57.371Z,970.67
2018-08-25T03:04:57.362Z,970.69
2018-08-25T03:05:57.362Z,970.69
2018-08-25T03:06:57.357Z,970.70
2018-08-25T03:07:57.355Z,970.65
2018-08-25T03:08:57.344Z,970.60
2018-08-25T03:09:57.342Z,970.54
2018-08-25T03:10:57.334Z,970.57
2018-08-25T03:11:57.338Z,970.56
2018-08-25T03:12:57.354Z,970.58
2018-08-25T03:13:57.322Z,970.57
2018-08-25T03:14:57.314Z,970.60
2018-08-25T03:15:57.314Z,970.58
2018-08-25T03:16:57.308Z,970.54
2018-08-25T03:17:57.299Z,970.54
2018-08-25T03:18:57.295Z,970.53
2018-08-25T03:19:57.292Z,970.49
2018-08-25T03:20:57.287Z,970.52
2018-08-25T03:21:57.283Z,970.52
2018-08-25T03:22:57.275Z,970.56
2018-08-25T03:23:57.272Z,970.52
2018-08-25T03:24:57.262Z,970.58
2018-08-25T03:25:57.259Z,970.55
2018-08-25T03:26:57.256Z,970.58
2018-08-25T03:27:57.252Z,970.57
2018-08-25T03:28:57.242Z,970.57
2018-08-25T03:29:57.241Z,970.56
2018-08-25T03:30:57.230Z,970.57
2018-08-25T03:31:57.225Z,970.56
2018-08-25T03:32:57.225Z,970.54
2018-08-25T03:33:57.221Z,970.55
2018-08-25T03:34:57.212Z,970.56
2018-08-25T03:35:57.211Z,970.56
2018-08-25T03:36:57.208Z,970.55
2018-08-25T03:37:57.194Z,970.54
2018-08-25T03:38:57.188Z,970.50
2018-08-25T03:39:57.191Z,970.45
2018-08-25T03:40:57.177Z,970.45
2018-08-25T03:41:57.174Z,970.48
2018-08-25T03:42:57.183Z,970.46
2018-08-25T03:43:57.164Z,970.47
2018-08-25T03:44:57.163Z,970.47
2018-08-25T03:45:57.165Z,970.48
2018-08-25T03:46:57.153Z,970.46
2018-08-25T03:47:57.147Z,970.42
2018-08-25T03:48:57.137Z,970.42
2018-08-25T03:49:57.132Z,970.45
2018-08-25T03:50:57.131Z,970.44
2018-08-25T03:51:57.125Z,970.45
2018-08-25T03:52:57.119Z,970.46
2018-08-25T03:53:57.114Z,970.43
2018-08-25T03:54:57.106Z,970.49
2018-08-25T03:55:57.100Z,970.45
2018-08-25T03:56:57.103Z,970.46
2018-08-25T03:57:57.097Z,970.47
2018-08-25T03:58:57.091Z,970.49
2018-08-25T03:59:57.079Z,970.49
2018-08-25T04:00:57.076Z,970.49
2018-08-25T04:01:57.072Z,970.49
2018-08-25T04:02:57.065Z,970.42
2018-08-25T04:03:57.058Z,970.42
2018-08-25T04:04:57.052Z,970.40
2018-08-25T04:05:57.051Z,970.45
2018-08-25T04:06:57.045Z,970.45
2018-08-25T04:07:57.042Z,970.42
2018-08-25T04:08:57.031Z,970.45
2018-08-25T04:09:57.033Z,970.47
2018-08-25T04:10:57.025Z,970.45
2018-08-25T04:11:57.015Z,970.44
2018-08-25T04:12:57.018Z,970.46
2018-08-25T04:13:57.011Z,970.46
2018-08-25T04:14:57.113Z,970.40
2018-08-25T04:15:56.999Z,970.45
2018-08-25T04:16:57.019Z,970.42
2018-08-25T04:17:56.987Z,970.45
2018-08-25T04:18:56.982Z,970.42
2018-08-25T04:19:56.977Z,970.38
2018-08-25T04:20:56.968Z,970.38
2018-08-25T04:21:56.964Z,970.35
2018-08-25T04:22:56.958Z,970.33
2018-08-25T04:23:56.958Z,970.30
2018-08-25T04:24:56.945Z,970.28
2018-08-25T04:25:56.940Z,970.28
2018-08-25T04:26:56.937Z,970.27
2018-08-25T04:27:56.934Z,970.27
2018-08-25T04:28:56.925Z,970.29
2018-08-25T04:29:56.924Z,970.29
2018-08-25T04:30:56.916Z,970.27
2018-08-25T04:31:56.907Z,970.29
2018-08-25T04:32:56.906Z,970.28
2018-08-25T04:33:56.902Z,970.29
2018-08-25T04:34:56.894Z,970.29
2018-08-25T04:35:56.892Z,970.30
2018-08-25T04:36:56.886Z,970.27
2018-08-25T04:37:56.877Z,970.27
2018-08-25T04:38:56.873Z,970.28
2018-08-25T04:39:56.870Z,970.30
2018-08-25T04:40:56.860Z,970.31
2018-08-25T04:41:56.856Z,970.28
2018-08-25T04:42:56.849Z,970.34
2018-08-25T04:43:56.846Z,970.32
2018-08-25T04:44:56.841Z,970.32
2018-08-25T04:45:56.831Z,970.33
2018-08-25T04:46:56.832Z,970.32
2018-08-25T04:47:56.827Z,970.34
2018-08-25T04:48:56.824Z,970.33
2018-08-25T04:49:56.810Z,970.37
2018-08-25T04:50:56.811Z,970.37
2018-08-25T04:51:56.798Z,970.41
2018-08-25T04:52:56.796Z,970.40
2018-08-25T04:53:56.787Z,970.43
2018-08-25T04:54:56.790Z,970.45
2018-08-25T04:55:56.785Z,970.43
2018-08-25T04:56:56.779Z,970.44
2018-08-25T04:57:56.766Z,970.47
2018-08-25T04:58:56.762Z,970.48
2018-08-25T04:59:56.755Z,970.48
2018-08-25T05:00:56.755Z,970.47
2018-08-25T05:01:56.820Z,970.47
2018-08-25T05:02:56.746Z,970.44
2018-08-25T05:03:56.741Z,970.46
2018-08-25T05:04:56.739Z,970.43
2018-08-25T05:05:56.726Z,970.41
2018-08-25T05:06:56.715Z,970.41
2018-08-25T05:07:56.714Z,970.35
2018-08-25T05:08:56.706Z,970.37
2018-08-25T05:09:56.699Z,970.38
2018-08-25T05:10:56.699Z,970.37
2018-08-25T05:11:56.692Z,970.36
2018-08-25T05:12:56.685Z,970.35
2018-08-25T05:13:56.677Z,970.36
2018-08-25T05:14:56.672Z,970.38
2018-08-25T05:15:56.668Z,970.38
2018-08-25T05:16:56.665Z,970.33
2018-08-25T05:17:56.654Z,970.36
2018-08-25T05:18:56.653Z,970.35
2018-08-25T05:19:56.649Z,970.33
2018-08-25T05:20:56.638Z,970.36
2018-08-25T05:21:56.714Z,970.37
2018-08-25T05:22:56.639Z,970.31
2018-08-25T05:23:56.631Z,970.36
2018-08-25T05:24:56.621Z,970.32
2018-08-25T05:25:56.614Z,970.30
2018-08-25T05:26:56.612Z,970.28
2018-08-25T05:27:56.609Z,970.30
2018-08-25T05:28:56.608Z,970.26
2018-08-25T05:29:56.590Z,970.31
2018-08-25T05:30:56.587Z,970.30
2018-08-25T05:31:56.583Z,970.34
2018-08-25T05:32:56.573Z,970.29
2018-08-25T05:33:56.573Z,970.30
2018-08-25T05:34:56.569Z,970.31
2018-08-25T05:35:56.557Z,970.29
2018-08-25T05:36:56.552Z,970.31
2018-08-25T05:37:56.554Z,970.28
2018-08-25T05:38:56.548Z,970.30
2018-08-25T05:39:56.541Z,970.27
2018-08-25T05:40:56.530Z,970.29
2018-08-25T05:41:56.525Z,970.30
2018-08-25T05:42:56.520Z,970.34
2018-08-25T05:43:56.514Z,970.35
2018-08-25T05:44:56.509Z,970.36
2018-08-25T05:45:56.508Z,970.40
2018-08-25T05:46:56.502Z,970.39
2018-08-25T05:47:56.505Z,970.38
2018-08-25T05:48:56.486Z,970.36
2018-08-25T05:49:56.487Z,970.38
2018-08-25T05:50:56.479Z,970.34
2018-08-25T05:51:56.473Z,970.37
2018-08-25T05:52:56.473Z,970.28
2018-08-25T05:53:56.468Z,970.34
2018-08-25T05:54:56.456Z,970.32
2018-08-25T05:55:56.449Z,970.33
2018-08-25T05:56:56.447Z,970.30
2018-08-25T05:57:56.444Z,970.27
2018-08-25T05:58:56.435Z,970.29
2018-08-25T05:59:56.435Z,970.27
2018-08-25T06:00:56.427Z,970.21
2018-08-25T06:01:56.418Z,970.26
2018-08-25T06:02:56.411Z,970.22
2018-08-25T06:03:56.413Z,970.18
2018-08-25T06:04:56.404Z,970.19
2018-08-25T06:05:56.396Z,970.17
2018-08-25T06:06:56.395Z,970.22
2018-08-25T06:07:56.387Z,970.17
2018-08-25T06:08:56.382Z,970.15
2018-08-25T06:09:56.378Z,970.17
2018-08-25T06:10:56.377Z,970.11
2018-08-25T06:11:56.364Z,970.13
2018-08-25T06:12:56.362Z,970.11
2018-08-25T06:13:56.360Z,970.12
2018-08-25T06:14:56.350Z,970.08
2018-08-25T06:15:56.342Z,970.08
2018-08-25T06:16:56.343Z,970.10
2018-08-25T06:17:56.332Z,970.12
2018-08-25T06:18:56.335Z,970.11
2018-08-25T06:19:56.324Z,970.13
2018-08-25T06:20:56.317Z,970.18
2018-08-25T06:21:56.314Z,970.19
2018-08-25T06:22:56.309Z,970.15
2018-08-25T06:23:56.303Z,970.16
2018-08-25T06:24:56.302Z,970.20
2018-08-25T06:25:56.296Z,970.21
2018-08-25T06:26:56.289Z,970.19
2018-08-25T06:27:56.289Z,970.21
2018-08-25T06:28:56.278Z,970.21
2018-08-25T06:29:56.301Z,970.18
2018-08-25T06:30:56.270Z,970.21
2018-08-25T06:31:56.267Z,970.21
2018-08-25T06:32:56.264Z,970.23
2018-08-25T06:33:56.255Z,970.23
2018-08-25T06:34:56.254Z,970.18
2018-08-25T06:37:10.427Z,970.21
2018-08-25T06:38:10.417Z,970.19
2018-08-25T06:39:10.416Z,970.22
2018-08-25T06:40:10.407Z,970.16
2018-08-25T06:41:10.404Z,970.19
2018-08-25T06:42:10.397Z,970.18
2018-08-25T06:43:10.383Z,970.17
2018-08-25T06:44:10.382Z,970.19
2018-08-25T06:45:10.376Z,970.17
2018-08-25T06:46:10.368Z,970.18
2018-08-25T06:47:10.360Z,970.17
2018-08-25T06:48:10.354Z,970.23
2018-08-25T06:49:10.351Z,970.23
2018-08-25T06:50:10.341Z,970.25
2018-08-25T06:51:10.337Z,970.23
2018-08-25T06:52:10.339Z,970.22
2018-08-25T06:53:10.378Z,970.16
2018-08-25T06:54:10.311Z,970.19
2018-08-25T06:55:10.307Z,970.17
2018-08-25T06:56:10.308Z,970.16
2018-08-25T06:57:10.291Z,970.16
2018-08-25T06:58:10.292Z,970.20
2018-08-25T06:59:10.287Z,970.18
2018-08-25T07:00:10.282Z,970.21
2018-08-25T07:01:10.266Z,970.23
2018-08-25T07:02:10.263Z,970.20
2018-08-25T07:03:10.254Z,970.20
2018-08-25T07:04:10.250Z,970.22
2018-08-25T07:05:10.249Z,970.24
2018-08-25T07:06:10.251Z,970.23
2018-08-25T07:07:10.242Z,970.20
2018-08-25T07:08:10.225Z,970.20
2018-08-25T07:09:10.222Z,970.23
2018-08-25T07:10:10.209Z,970.24
2018-08-25T07:11:10.207Z,970.25
2018-08-25T07:12:10.201Z,970.27
2018-08-25T07:13:10.200Z,970.27
2018-08-25T07:14:10.189Z,970.27
2018-08-25T07:15:10.181Z,970.26
2018-08-25T07:16:10.172Z,970.32
2018-08-25T07:17:10.172Z,970.36
2018-08-25T07:18:10.159Z,970.40
2018-08-25T07:19:10.158Z,970.42
2018-08-25T07:20:10.148Z,970.46
2018-08-25T07:21:10.143Z,970.43
2018-08-25T07:22:10.141Z,970.40
2018-08-25T07:23:10.128Z,970.39
2018-08-25T07:24:10.125Z,970.40
2018-08-25T07:25:10.116Z,970.40
2018-08-25T07:26:10.162Z,970.42
2018-08-25T07:27:10.109Z,970.38
2018-08-25T07:28:10.102Z,970.44
2018-08-25T07:29:10.096Z,970.43
2018-08-25T07:30:10.089Z,970.42
2018-08-25T07:31:10.083Z,970.39
2018-08-25T07:32:10.126Z,970.40
2018-08-25T07:33:10.070Z,970.38
2018-08-25T07:34:10.061Z,970.40
2018-08-25T07:35:10.058Z,970.35
2018-08-25T07:36:10.051Z,970.36
2018-08-25T07:37:10.041Z,970.32
2018-08-25T07:38:10.043Z,970.28
2018-08-25T07:39:10.029Z,970.24
2018-08-25T07:40:10.026Z,970.30
2018-08-25T07:41:10.014Z,970.25
2018-08-25T07:42:10.009Z,970.32
2018-08-25T07:43:10.010Z,970.36
2018-08-25T07:44:10.003Z,970.39
2018-08-25T07:45:10.025Z,970.40
2018-08-25T07:46:09.988Z,970.38
2018-08-25T07:47:09.984Z,970.40
2018-08-25T07:48:09.974Z,970.35
2018-08-25T07:49:09.974Z,970.39
2018-08-25T07:50:09.962Z,970.40
2018-08-25T07:51:09.968Z,970.36
2018-08-25T07:52:09.945Z,970.37
2018-08-25T07:53:09.941Z,970.37
2018-08-25T07:54:09.939Z,970.39
2018-08-25T07:55:09.928Z,970.38
2018-08-25T07:56:09.924Z,970.40
2018-08-25T07:57:09.926Z,970.42
2018-08-25T07:58:09.910Z,970.39
2018-08-25T07:59:09.941Z,970.42
2018-08-25T08:00:09.902Z,970.41
2018-08-25T08:01:09.893Z,970.41
2018-08-25T08:02:09.891Z,970.42
2018-08-25T08:03:09.886Z,970.40
2018-08-25T08:04:09.874Z,970.44
2018-08-25T08:05:09.873Z,970.43
2018-08-25T08:06:09.875Z,970.45
2018-08-25T08:07:09.865Z,970.49
2018-08-25T08:08:09.851Z,970.48
2018-08-25T08:09:09.842Z,970.53
2018-08-25T08:10:09.837Z,970.51
2018-08-25T08:11:09.833Z,970.51
2018-08-25T08:12:09.886Z,970.56
2018-08-25T08:13:09.822Z,970.55
2018-08-25T08:14:09.819Z,970.55
2018-08-25T08:15:09.811Z,970.58
2018-08-25T08:16:09.811Z,970.63
2018-08-25T08:17:09.800Z,970.60
2018-08-25T08:18:09.789Z,970.59
2018-08-25T08:19:09.781Z,970.59
2018-08-25T08:20:09.778Z,970.62
2018-08-25T08:21:09.767Z,970.62
2018-08-25T08:22:09.770Z,970.64
2018-08-25T08:23:09.854Z,970.63
2018-08-25T08:24:09.753Z,970.66
2018-08-25T08:25:09.801Z,970.64
2018-08-25T08:26:09.739Z,970.67
2018-08-25T08:27:09.741Z,970.64
2018-08-25T08:28:09.725Z,970.65
2018-08-25T08:29:09.888Z,970.65
2018-08-25T08:30:09.713Z,970.68
2018-08-25T08:31:09.709Z,970.67
2018-08-25T08:32:09.707Z,970.66
2018-08-25T08:33:09.825Z,970.63
2018-08-25T08:34:09.697Z,970.63
2018-08-25T08:35:09.687Z,970.62
2018-08-25T08:36:09.683Z,970.63
2018-08-25T08:37:09.677Z,970.61
2018-08-25T08:38:09.672Z,970.65
2018-08-25T08:39:09.663Z,970.68
2018-08-25T08:40:09.661Z,970.69
2018-08-25T08:41:09.650Z,970.70
2018-08-25T08:42:09.667Z,970.69
2018-08-25T08:43:09.640Z,970.73
2018-08-25T08:44:09.633Z,970.73
2018-08-25T08:45:09.628Z,970.76
2018-08-25T08:46:09.624Z,970.82
2018-08-25T08:47:09.614Z,970.78
2018-08-25T08:48:09.611Z,970.81
2018-08-25T08:49:09.607Z,970.81
2018-08-25T08:50:09.599Z,970.80
2018-08-25T08:51:09.596Z,970.85
2018-08-25T08:52:09.589Z,970.86
2018-08-25T08:53:09.581Z,970.86
2018-08-25T08:54:09.579Z,970.90
2018-08-25T08:55:09.575Z,970.87
2018-08-25T08:56:09.564Z,970.87
2018-08-25T08:57:09.567Z,970.87
2018-08-25T08:58:09.575Z,970.89
2018-08-25T08:59:09.552Z,970.93
2018-08-25T09:00:09.547Z,970.93
2018-08-25T09:01:09.540Z,970.92
2018-08-25T09:02:09.537Z,970.95
2018-08-25T09:03:09.525Z,970.95
2018-08-25T09:04:09.523Z,970.98
2018-08-25T09:05:09.517Z,970.96
2018-08-25T09:06:09.509Z,970.92
2018-08-25T09:07:09.506Z,970.97
2018-08-25T09:08:09.499Z,970.94
2018-08-25T09:09:09.496Z,970.91
2018-08-25T09:10:09.492Z,970.91
2018-08-25T09:11:09.489Z,970.90
2018-08-25T09:12:09.480Z,970.86
2018-08-25T09:13:09.474Z,970.89
2018-08-25T09:14:09.469Z,970.88
2018-08-25T09:15:09.463Z,970.90
2018-08-25T09:16:09.458Z,971.00
2018-08-25T09:17:09.454Z,970.90
2018-08-25T09:18:09.499Z,970.94
2018-08-25T09:19:09.439Z,970.97
2018-08-25T09:20:09.435Z,970.92
2018-08-25T09:21:09.430Z,970.98
2018-08-25T09:22:09.421Z,970.93
2018-08-25T09:23:09.419Z,970.96
2018-08-25T09:24:09.417Z,970.99
2018-08-25T09:25:09.404Z,971.03
2018-08-25T09:26:09.408Z,971.00
2018-08-25T09:27:09.397Z,970.96
2018-08-25T09:28:09.389Z,971.02
2018-08-25T09:29:09.387Z,971.11
2018-08-25T09:30:09.388Z,971.06
2018-08-25T09:31:09.374Z,971.09
2018-08-25T09:32:09.369Z,971.12
2018-08-25T09:33:09.357Z,971.08
2018-08-25T09:34:09.355Z,971.05
2018-08-25T09:35:09.353Z,971.09
2018-08-25T09:36:09.372Z,971.06
2018-08-25T09:37:09.334Z,971.09
2018-08-25T09:38:09.327Z,971.14
2018-08-25T09:39:09.326Z,971.12
2018-08-25T09:40:09.314Z,971.19
2018-08-25T09:41:09.316Z,971.19
2018-08-25T09:42:09.299Z,971.15
2018-08-25T09:43:09.294Z,971.19
2018-08-25T09:44:09.292Z,971.21
2018-08-25T09:45:09.282Z,971.17
2018-08-25T09:46:09.279Z,971.21
2018-08-25T09:47:09.298Z,971.20
2018-08-25T09:48:09.263Z,971.25
2018-08-25T09:49:09.278Z,971.26
2018-08-25T09:50:09.248Z,971.24
2018-08-25T09:51:09.248Z,971.26
2018-08-25T09:52:09.236Z,971.21
2018-08-25T09:53:09.236Z,971.25
2018-08-25T09:54:09.221Z,971.21
2018-08-25T09:55:09.218Z,971.28
2018-08-25T09:56:09.209Z,971.30
2018-08-25T09:57:09.203Z,971.32
2018-08-25T09:58:09.202Z,971.27
2018-08-25T09:59:09.190Z,971.29
2018-08-25T10:00:09.190Z,971.34
2018-08-25T10:01:09.175Z,971.30
2018-08-25T10:02:09.176Z,971.34
2018-08-25T10:03:09.168Z,971.31
2018-08-25T10:04:09.169Z,971.27
2018-08-25T10:05:09.158Z,971.26
2018-08-25T10:06:09.141Z,971.18
2018-08-25T10:07:09.145Z,971.31
2018-08-25T10:08:09.135Z,971.29
2018-08-25T10:09:09.125Z,971.34
2018-08-25T10:10:09.115Z,971.27
2018-08-25T10:11:09.115Z,971.33
2018-08-25T10:12:09.107Z,971.33
2018-08-25T10:13:09.099Z,971.26
2018-08-25T10:14:09.094Z,971.25
2018-08-25T10:15:09.090Z,971.25
2018-08-25T10:16:09.077Z,971.28
2018-08-25T10:17:09.073Z,971.29
2018-08-25T10:18:09.065Z,971.33
2018-08-25T10:19:09.116Z,971.29
2018-08-25T10:20:09.050Z,971.33
2018-08-25T10:21:09.043Z,971.33
2018-08-25T10:22:09.035Z,971.38
2018-08-25T10:23:09.081Z,971.39
2018-08-25T10:24:09.017Z,971.36
2018-08-25T10:25:09.021Z,971.37
2018-08-25T10:26:09.004Z,971.35
2018-08-25T10:27:09.000Z,971.37
2018-08-25T10:28:08.991Z,971.39
2018-08-25T10:29:09.071Z,971.41
2018-08-25T10:30:09.077Z,971.38
2018-08-25T10:31:08.975Z,971.43
2018-08-25T10:32:08.969Z,971.40
2018-08-25T10:33:08.958Z,971.43
2018-08-25T10:34:08.950Z,971.40
2018-08-25T10:35:08.946Z,971.40
2018-08-25T10:36:08.934Z,971.39
2018-08-25T10:37:08.927Z,971.37
2018-08-25T10:38:08.919Z,971.40
2018-08-25T10:39:08.915Z,971.40
2018-08-25T10:40:08.908Z,971.40
2018-08-25T10:41:08.898Z,971.43
2018-08-25T10:42:08.998Z,971.44
2018-08-25T10:43:08.886Z,971.44
2018-08-25T10:44:08.898Z,971.46
2018-08-25T10:45:08.872Z,971.46
2018-08-25T10:46:08.865Z,971.43
2018-08-25T10:47:08.856Z,971.47
2018-08-25T10:48:08.888Z,971.51
2018-08-25T10:49:08.840Z,971.51
2018-08-25T10:50:08.832Z,971.48
2018-08-25T10:51:08.828Z,971.47
2018-08-25T10:52:08.821Z,971.46
2018-08-25T10:53:08.816Z,971.53
2018-08-25T10:54:08.889Z,971.52
2018-08-25T10:55:08.802Z,971.49
2018-08-25T10:56:08.794Z,971.49
2018-08-25T10:57:08.778Z,971.56
2018-08-25T10:58:08.779Z,971.51
2018-08-25T10:59:08.769Z,971.49
2018-08-25T11:00:08.865Z,971.50
2018-08-25T11:01:08.883Z,971.44
2018-08-25T11:02:08.742Z,971.53
2018-08-25T11:03:08.740Z,971.46
2018-08-25T11:04:08.728Z,971.42
2018-08-25T11:05:08.721Z,971.47
2018-08-25T11:06:08.713Z,971.46
2018-08-25T11:07:08.709Z,971.47
2018-08-25T11:08:08.702Z,971.44
2018-08-25T11:09:08.690Z,971.46
2018-08-25T11:10:08.687Z,971.44
2018-08-25T11:11:08.727Z,971.45
2018-08-25T11:12:08.668Z,971.44
2018-08-25T11:13:08.664Z,971.41
2018-08-25T11:14:08.663Z,971.40
2018-08-25T11:15:08.653Z,971.40
2018-08-25T11:16:08.641Z,971.39
2018-08-25T11:17:08.635Z,971.44
2018-08-25T11:18:08.631Z,971.44
2018-08-25T11:19:08.623Z,971.40
2018-08-25T11:20:08.621Z,971.45
2018-08-25T11:21:08.613Z,971.48
2018-08-25T11:22:08.614Z,971.45
2018-08-25T11:23:08.598Z,971.43
2018-08-25T11:24:08.589Z,971.42
2018-08-25T11:25:08.584Z,971.43
2018-08-25T11:26:08.571Z,971.42
2018-08-25T11:27:08.566Z,971.37
2018-08-25T11:28:08.563Z,971.35
2018-08-25T11:29:08.583Z,971.37
2018-08-25T11:30:08.541Z,971.39
2018-08-25T11:31:08.536Z,971.41
2018-08-25T11:32:08.537Z,971.40
2018-08-25T11:33:08.522Z,971.40
2018-08-25T11:34:08.513Z,971.36
2018-08-25T11:35:08.513Z,971.42
2018-08-25T11:36:08.503Z,971.36
2018-08-25T11:37:08.517Z,971.32
2018-08-25T11:38:08.509Z,971.31
2018-08-25T11:39:08.478Z,971.33
2018-08-25T11:40:08.484Z,971.34
2018-08-25T11:41:08.464Z,971.31
2018-08-25T11:42:08.459Z,971.29
2018-08-25T11:43:08.453Z,971.28
2018-08-25T11:44:08.476Z,971.23
2018-08-25T11:45:08.436Z,971.26
2018-08-25T11:46:08.435Z,971.27
2018-08-25T11:47:08.424Z,971.28
2018-08-25T11:48:08.469Z,971.30
2018-08-25T11:49:08.413Z,971.23
2018-08-25T11:50:08.404Z,971.21
2018-08-25T11:51:08.402Z,971.22
2018-08-25T11:52:08.411Z,971.21
2018-08-25T11:53:08.385Z,971.20
2018-08-25T11:54:08.447Z,971.19
2018-08-25T11:55:08.374Z,971.12
2018-08-25T11:56:08.364Z,971.16
2018-08-25T11:57:08.355Z,971.17
2018-08-25T11:58:08.349Z,971.15
2018-08-25T11:59:08.343Z,971.15
2018-08-25T12:00:08.343Z,971.09
2018-08-25T12:01:08.330Z,971.12
2018-08-25T12:02:08.332Z,971.13
2018-08-25T12:03:08.316Z,971.14
2018-08-25T12:04:08.314Z,971.11
2018-08-25T12:05:08.308Z,971.14
2018-08-25T12:06:08.300Z,971.17
2018-08-25T12:07:08.291Z,971.16
2018-08-25T12:08:08.280Z,971.13
2018-08-25T12:09:08.285Z,971.10
2018-08-25T12:10:08.273Z,971.10
2018-08-25T12:11:08.266Z,971.12
2018-08-25T12:12:08.255Z,971.02
2018-08-25T12:13:08.248Z,971.13
2018-08-25T12:14:08.246Z,971.13
2018-08-25T12:15:08.248Z,971.08
2018-08-25T12:16:08.235Z,971.12
2018-08-25T12:17:08.222Z,971.12
2018-08-25T12:18:08.217Z,971.13
2018-08-25T12:19:08.210Z,971.11
2018-08-25T12:20:08.202Z,971.11
2018-08-25T12:21:08.202Z,971.10
2018-08-25T12:22:08.191Z,971.13
2018-08-25T12:23:08.182Z,971.07
2018-08-25T12:24:08.203Z,971.14
2018-08-25T12:25:08.167Z,971.14
2018-08-25T12:26:08.169Z,971.16
2018-08-25T12:27:08.157Z,971.16
2018-08-25T12:28:08.152Z,971.15
2018-08-25T12:29:08.141Z,971.11
2018-08-25T12:30:08.138Z,971.14